Time;durP1;ratioP1;P1;durP2;ratioP2;P2;SDS_P1;SDS_P2;PMS_P1;PMS_P2;Temp;Humidity;BMP_temperature;BMP_pressure;BME280_temperature;BME280_humidity;BME280_pressure;Samples;Min_cycle;Max_cycle;Signal;HPM_P1;HPM_P2
2021/01/28 00:05:36;;;;;;;;;30.50;28.25;;;;;;;;12542905;28;8915;-48
2021/01/28 00:11:37;;;;;;;;;36.25;30.75;;;;;;;;12535366;28;8877;-47
2021/01/28 00:17:39;;;;;;;;;40.00;35.50;;;;;;;;12534432;28;8842;-46
2021/01/28 00:23:40;;;;;;;;;42.00;29.50;;;;;;;;12539013;28;8979;-52
2021/01/28 00:29:42;;;;;;;;;18.00;18.00;;;;;;;;12536319;28;8835;-46
2021/01/28 00:35:47;;;;;;;;;20.75;18.00;;;;;;;;12540641;28;8836;-47
2021/01/28 00:41:49;;;;;;;;;12.25;12.25;;;;;;;;12533477;28;9011;-48
2021/01/28 00:47:50;;;;;;;;;14.50;12.50;;;;;;;;12538312;28;8873;-45
2021/01/28 00:53:52;;;;;;;;;12.50;11.00;;;;;;;;12536600;28;8917;-49
2021/01/28 00:59:54;;;;;;;;;11.25;11.25;;;;;;;;12529168;28;8937;-47
2021/01/28 01:05:56;;;;;;;;;13.00;13.00;;;;;;;;12529565;28;8867;-48
2021/01/28 01:11:57;;;;;;;;;24.25;20.50;;;;;;;;12538073;28;8831;-46
2021/01/28 01:17:59;;;;;;;;;21.50;20.00;;;;;;;;12529566;28;8930;-48
2021/01/28 01:24:06;;;;;;;;;21.50;21.00;;;;;;;;12525874;28;8849;-50
2021/01/28 01:30:08;;;;;;;;;29.75;25.50;;;;;;;;12530587;28;8842;-47
2021/01/28 01:36:16;;;;;;;;;29.50;27.75;;;;;;;;12530897;28;8862;-49
2021/01/28 01:42:25;;;;;;;;;27.75;25.50;;;;;;;;12525284;28;8970;-49
2021/01/28 01:48:35;;;;;;;;;26.00;23.25;;;;;;;;12527113;28;8860;-47
2021/01/28 01:54:41;;;;;;;;;29.50;27.00;;;;;;;;12528854;28;8850;-47
2021/01/28 02:00:43;;;;;;;;;30.50;27.25;;;;;;;;12532011;28;8851;-45
2021/01/28 02:07:00;;;;;;;;;22.00;22.00;;;;;;;;12530069;28;8963;-45
2021/01/28 02:13:36;;;;;;;;;28.25;25.25;;;;;;;;12535082;28;8842;-45
2021/01/28 02:20:10;;;;;;;;;32.75;29.50;;;;;;;;12526782;28;8870;-45
2021/01/28 02:26:20;;;;;;;;;36.50;31.00;;;;;;;;12541062;28;8967;-48
2021/01/28 02:32:22;;;;;;;;;26.25;24.00;;;;;;;;12529360;28;8897;-46
2021/01/28 02:38:47;;;;;;;;;32.67;29.33;;;;;;;;12509205;28;8836;-45
2021/01/28 02:44:49;;;;;;;;;32.33;28.00;;;;;;;;12530692;28;9588;-48
2021/01/28 02:51:10;;;;;;;;;28.00;24.75;;;;;;;;12535065;28;8858;-45
2021/01/28 02:57:15;;;;;;;;;31.00;28.00;;;;;;;;12540624;28;8965;-47
2021/01/28 03:03:23;;;;;;;;;32.50;30.25;;;;;;;;12536320;28;8911;-49
2021/01/28 03:09:25;;;;;;;;;28.50;28.50;;;;;;;;12541987;28;8949;-48
2021/01/28 03:15:48;;;;;;;;;46.00;38.33;;;;;;;;12533422;28;8834;-48
2021/01/28 03:21:50;;;;;;;;;36.50;32.00;;;;;;;;12535786;28;8885;-45
2021/01/28 03:28:10;;;;;;;;;39.67;30.00;;;;;;;;12532724;28;8859;-48
2021/01/28 03:34:15;;;;;;;;;40.33;36.00;;;;;;;;12537790;28;9628;-46
2021/01/28 03:40:20;;;;;;;;;42.67;38.67;;;;;;;;12539353;28;8842;-47
2021/01/28 03:46:24;;;;;;;;;31.00;30.00;;;;;;;;12586832;28;8835;-46
2021/01/28 03:52:27;;;;;;;;;38.33;34.67;;;;;;;;12584281;28;8859;-48
2021/01/28 03:58:45;;;;;;;;;40.67;34.00;;;;;;;;12569454;28;9385;-48
2021/01/28 04:05:08;;;;;;;;;32.33;31.00;;;;;;;;12591380;28;8863;-49
2021/01/28 04:11:32;;;;;;;;;43.33;41.67;;;;;;;;12575041;28;8868;-47
2021/01/28 04:17:45;;;;;;;;;38.00;30.00;;;;;;;;12575528;28;9593;-45
2021/01/28 04:23:53;;;;;;;;;27.25;25.25;;;;;;;;12573863;28;8848;-45
2021/01/28 04:30:27;;;;;;;;;36.33;30.00;;;;;;;;12587756;28;8848;-46
2021/01/28 04:36:32;;;;;;;;;38.25;30.75;;;;;;;;12590708;28;8860;-49
2021/01/28 04:42:52;;;;;;;;;41.67;36.00;;;;;;;;12572680;28;8824;-47
2021/01/28 04:49:01;;;;;;;;;43.67;36.33;;;;;;;;12590108;28;8855;-48
2021/01/28 04:55:22;;;;;;;;;33.67;27.67;;;;;;;;12584897;28;8868;-48
2021/01/28 05:07:56;;;;;;;;;41.67;35.33;;;;;;;;12373018;28;8898;-49
2021/01/28 05:14:37;;;;;;;;;43.00;37.67;;;;;;;;12376162;28;8828;-49
2021/01/28 05:21:08;;;;;;;;;42.33;36.33;;;;;;;;12375424;28;8836;-54
2021/01/28 05:27:24;;;;;;;;;41.67;38.67;;;;;;;;12361024;28;8851;-49
2021/01/28 05:33:40;;;;;;;;;34.00;33.00;;;;;;;;12381158;28;8840;-48
2021/01/28 05:40:26;;;;;;;;;25.67;25.00;;;;;;;;12363737;28;8860;-48
2021/01/28 05:47:13;;;;;;;;;45.67;36.33;;;;;;;;12375186;28;8836;-46
2021/01/28 05:53:57;;;;;;;;;45.00;36.33;;;;;;;;12358431;28;8840;-48
2021/01/28 06:00:45;;;;;;;;;38.33;34.67;;;;;;;;12355202;28;8848;-50
2021/01/28 06:07:14;;;;;;;;;48.33;42.67;;;;;;;;12281231;28;8867;-52
2021/01/28 06:13:35;;;;;;;;;47.33;40.67;;;;;;;;12300241;28;8850;-46
2021/01/28 06:20:07;;;;;;;;;38.67;32.33;;;;;;;;12294868;28;8918;-48
2021/01/28 06:26:42;;;;;;;;;28.00;24.67;;;;;;;;12304835;28;8854;-47
2021/01/28 06:33:02;;;;;;;;;44.33;39.00;;;;;;;;12318997;28;9659;-49
2021/01/28 06:39:35;;;;;;;;;30.50;27.50;;;;;;;;12323103;28;8986;-48
2021/01/28 06:46:09;;;;;;;;;33.33;31.00;;;;;;;;12321996;28;8974;-52
2021/01/28 06:52:42;;;;;;;;;29.00;27.67;;;;;;;;12307571;28;9637;-50
2021/01/28 06:59:06;;;;;;;;;34.75;30.50;;;;;;;;12299483;28;8861;-52
2021/01/28 07:05:19;;;;;;;;;33.67;28.00;;;;;;;;12314017;28;8857;-48
2021/01/28 07:11:22;;;;;;;;;33.25;29.50;;;;;;;;12302621;28;8874;-54
2021/01/28 07:17:44;;;;;;;;;34.00;34.00;;;;;;;;12315418;28;8842;-49
2021/01/28 07:24:03;;;;;;;;;40.00;31.25;;;;;;;;12319830;28;8913;-49
2021/01/28 07:30:05;;;;;;;;;39.50;34.50;;;;;;;;12334029;28;8869;-53
2021/01/28 07:36:12;;;;;;;;;38.50;33.25;;;;;;;;12307022;28;8864;-47
2021/01/28 07:42:34;;;;;;;;;38.50;32.00;;;;;;;;12316949;28;8858;-46
2021/01/28 07:49:21;;;;;;;;;39.50;38.00;;;;;;;;12326485;28;8929;-48
2021/01/28 07:55:43;;;;;;;;;31.00;26.50;;;;;;;;12321560;28;8887;-48
2021/01/28 08:01:51;;;;;;;;;12.00;8.00;;;;;;;;12323026;28;8826;-49
2021/01/28 08:08:07;;;;;;;;;39.00;34.00;;;;;;;;12310470;28;9710;-47
2021/01/28 08:14:12;;;;;;;;;41.33;39.33;;;;;;;;12319871;28;9893;-45
2021/01/28 08:20:21;;;;;;;;;44.67;41.00;;;;;;;;12301918;28;8852;-45
2021/01/28 08:26:27;;;;;;;;;46.25;43.75;;;;;;;;12318582;28;8862;-50
2021/01/28 08:32:30;;;;;;;;;43.75;35.75;;;;;;;;12306861;28;9248;-49
2021/01/28 08:38:33;;;;;;;;;40.50;36.75;;;;;;;;12305689;28;8874;-49
2021/01/28 08:44:37;;;;;;;;;44.50;40.00;;;;;;;;12311545;28;9679;-52
2021/01/28 08:50:38;;;;;;;;;47.00;36.75;;;;;;;;12303920;28;8876;-49
2021/01/28 08:56:40;;;;;;;;;52.50;46.25;;;;;;;;12304288;28;8861;-49
2021/01/28 09:02:47;;;;;;;;;39.75;37.25;;;;;;;;12296738;28;8906;-52
2021/01/28 09:09:04;;;;;;;;;44.50;38.75;;;;;;;;12307735;28;8948;-53
2021/01/28 09:15:24;;;;;;;;;29.00;24.50;;;;;;;;12302047;28;9067;-50
2021/01/28 09:21:38;;;;;;;;;46.25;43.75;;;;;;;;12306922;28;9601;-51
2021/01/28 09:27:40;;;;;;;;;44.00;39.25;;;;;;;;12309796;28;8868;-50
2021/01/28 09:33:41;;;;;;;;;38.00;38.00;;;;;;;;12309941;28;9594;-50
2021/01/28 09:39:46;;;;;;;;;54.75;43.00;;;;;;;;12284556;28;9666;-48
2021/01/28 09:46:25;;;;;;;;;52.50;43.75;;;;;;;;12301721;28;8838;-52
2021/01/28 09:52:30;;;;;;;;;54.00;47.00;;;;;;;;12262459;28;8846;-52
2021/01/28 09:58:32;;;;;;;;;46.00;44.25;;;;;;;;12319401;28;9621;-48
2021/01/28 10:04:33;;;;;;;;;54.50;44.50;;;;;;;;12304550;28;8935;-49
2021/01/28 10:10:37;;;;;;;;;44.50;38.25;;;;;;;;12297641;28;10079;-51
2021/01/28 10:16:39;;;;;;;;;58.25;49.25;;;;;;;;12313778;28;9623;-51
2021/01/28 10:22:42;;;;;;;;;70.75;58.00;;;;;;;;12279276;28;8840;-49
2021/01/28 10:28:46;;;;;;;;;61.00;47.00;;;;;;;;12296520;28;8841;-50
2021/01/28 10:34:47;;;;;;;;;52.00;42.25;;;;;;;;12300500;28;8883;-49
2021/01/28 10:40:51;;;;;;;;;47.25;43.25;;;;;;;;12301619;28;8840;-54
2021/01/28 10:46:53;;;;;;;;;42.25;40.50;;;;;;;;12297141;28;8879;-52
2021/01/28 10:52:55;;;;;;;;;47.75;42.25;;;;;;;;12306532;28;8870;-51
2021/01/28 10:58:57;;;;;;;;;48.25;43.25;;;;;;;;12296597;28;9017;-49
2021/01/28 11:04:59;;;;;;;;;49.75;44.25;;;;;;;;12303641;28;8876;-51
2021/01/28 11:11:01;;;;;;;;;53.75;45.75;;;;;;;;12311663;28;8860;-51
2021/01/28 11:17:03;;;;;;;;;62.50;47.50;;;;;;;;12317319;28;8879;-50
2021/01/28 11:23:04;;;;;;;;;49.75;45.50;;;;;;;;12306618;28;8834;-52
2021/01/28 11:29:06;;;;;;;;;47.50;41.75;;;;;;;;12310342;28;8851;-51
2021/01/28 11:35:08;;;;;;;;;51.25;44.75;;;;;;;;12312273;28;8860;-49
2021/01/28 11:41:10;;;;;;;;;63.00;46.50;;;;;;;;12313786;28;8850;-48
2021/01/28 11:47:12;;;;;;;;;60.00;51.00;;;;;;;;12307218;28;9756;-51
2021/01/28 11:53:14;;;;;;;;;51.00;43.50;;;;;;;;12315054;28;8857;-50
2021/01/28 11:59:15;;;;;;;;;54.25;43.25;;;;;;;;12304287;28;8860;-51
2021/01/28 12:05:20;;;;;;;;;53.75;43.25;;;;;;;;12300952;28;8880;-47
2021/01/28 12:11:23;;;;;;;;;43.50;39.75;;;;;;;;12305070;28;8854;-50
2021/01/28 12:17:28;;;;;;;;;51.50;44.25;;;;;;;;12313363;28;9102;-51
2021/01/28 12:23:30;;;;;;;;;50.75;42.75;;;;;;;;12287569;28;8840;-50
2021/01/28 12:29:31;;;;;;;;;46.50;40.50;;;;;;;;12305569;28;8832;-50
2021/01/28 12:35:33;;;;;;;;;45.25;40.25;;;;;;;;12310485;28;8865;-54
2021/01/28 12:41:35;;;;;;;;;38.75;35.50;;;;;;;;12308300;28;8840;-50
2021/01/28 12:47:36;;;;;;;;;39.25;36.50;;;;;;;;12309548;28;8887;-48
2021/01/28 12:53:38;;;;;;;;;49.00;43.25;;;;;;;;12309800;28;8870;-50
2021/01/28 12:59:40;;;;;;;;;43.00;38.75;;;;;;;;12311655;28;8827;-48
2021/01/28 13:05:42;;;;;;;;;51.50;43.50;;;;;;;;12293388;28;8904;-50
2021/01/28 13:11:43;;;;;;;;;36.25;29.75;;;;;;;;12305711;28;8862;-51
2021/01/28 13:17:47;;;;;;;;;48.50;43.75;;;;;;;;12306062;28;8855;-49
2021/01/28 13:23:49;;;;;;;;;46.50;43.00;;;;;;;;12307817;28;8864;-50
2021/01/28 13:29:51;;;;;;;;;69.75;58.50;;;;;;;;12308007;28;8842;-49
2021/01/28 13:35:52;;;;;;;;;57.75;48.50;;;;;;;;12301573;28;8877;-53
2021/01/28 13:41:54;;;;;;;;;47.00;39.00;;;;;;;;12308694;28;9578;-52
2021/01/28 13:47:57;;;;;;;;;47.75;42.50;;;;;;;;12303530;28;8848;-49
2021/01/28 13:53:59;;;;;;;;;49.50;37.50;;;;;;;;12306849;28;8834;-46
2021/01/28 14:00:00;;;;;;;;;43.25;37.75;;;;;;;;12312565;28;8862;-45
2021/01/28 14:06:12;;;;;;;;;39.50;32.50;;;;;;;;12315526;28;8878;-48
2021/01/28 14:12:13;;;;;;;;;45.75;38.00;;;;;;;;12309750;28;9434;-48
2021/01/28 14:18:19;;;;;;;;;43.00;36.50;;;;;;;;12321071;28;8863;-46
2021/01/28 14:24:21;;;;;;;;;36.25;30.50;;;;;;;;12317901;28;8880;-46
2021/01/28 14:30:23;;;;;;;;;41.75;38.75;;;;;;;;12301032;28;8866;-46
2021/01/28 14:36:26;;;;;;;;;42.50;36.00;;;;;;;;12301463;28;8956;-49
2021/01/28 14:42:27;;;;;;;;;44.75;39.50;;;;;;;;12306050;28;8856;-50
2021/01/28 14:48:29;;;;;;;;;1.75;0.75;;;;;;;;12318165;28;9625;-47
2021/01/28 14:54:30;;;;;;;;;38.75;34.50;;;;;;;;12318210;28;8842;-48
2021/01/28 15:00:32;;;;;;;;;37.50;36.25;;;;;;;;12317150;28;8853;-52
2021/01/28 15:06:33;;;;;;;;;43.25;39.75;;;;;;;;12295521;28;8906;-50
2021/01/28 15:12:34;;;;;;;;;37.00;30.67;;;;;;;;12322023;28;8854;-51
2021/01/28 15:18:36;;;;;;;;;43.67;36.33;;;;;;;;12312481;28;8956;-51
2021/01/28 15:24:37;;;;;;;;;51.00;43.67;;;;;;;;12315056;28;8883;-50
2021/01/28 15:30:38;;;;;;;;;55.00;45.67;;;;;;;;12315287;28;8856;-53
2021/01/28 15:36:40;;;;;;;;;42.67;36.67;;;;;;;;12317707;28;8864;-52
2021/01/28 15:42:42;;;;;;;;;50.33;44.33;;;;;;;;12293248;28;8841;-52
2021/01/28 15:48:46;;;;;;;;;50.67;47.33;;;;;;;;12300425;28;8871;-49
2021/01/28 15:54:48;;;;;;;;;43.00;40.00;;;;;;;;12310050;28;9421;-52
2021/01/28 16:00:49;;;;;;;;;47.67;42.67;;;;;;;;12312555;28;8840;-48
2021/01/28 16:06:51;;;;;;;;;56.33;48.00;;;;;;;;12320879;28;8861;-52
2021/01/28 16:12:52;;;;;;;;;51.00;40.67;;;;;;;;12323073;28;8838;-50
2021/01/28 16:18:54;;;;;;;;;45.67;41.33;;;;;;;;12310666;28;8860;-50
2021/01/28 16:24:56;;;;;;;;;45.33;40.67;;;;;;;;12315744;28;9054;-48
2021/01/28 16:30:58;;;;;;;;;44.33;36.67;;;;;;;;12314367;28;8864;-47
2021/01/28 16:37:00;;;;;;;;;42.67;39.67;;;;;;;;12315167;28;8856;-48
2021/01/28 16:43:03;;;;;;;;;49.00;43.67;;;;;;;;12316234;28;9029;-53
2021/01/28 16:49:06;;;;;;;;;42.33;37.67;;;;;;;;12309055;28;8882;-50
2021/01/28 16:55:08;;;;;;;;;39.00;36.33;;;;;;;;12308056;28;8856;-51
2021/01/28 17:01:10;;;;;;;;;50.33;40.00;;;;;;;;12318054;28;8842;-52
2021/01/28 17:07:14;;;;;;;;;37.67;33.00;;;;;;;;12317893;28;8864;-50
2021/01/28 17:13:15;;;;;;;;;43.00;42.00;;;;;;;;12312607;28;8853;-52
2021/01/28 17:19:16;;;;;;;;;55.67;49.67;;;;;;;;12311360;28;8831;-52
2021/01/28 17:25:20;;;;;;;;;52.33;44.33;;;;;;;;12308807;28;8871;-48
2021/01/28 17:31:23;;;;;;;;;47.33;45.00;;;;;;;;12315876;28;8837;-49
2021/01/28 17:37:24;;;;;;;;;52.00;46.67;;;;;;;;12309330;28;8869;-48
2021/01/28 17:43:26;;;;;;;;;62.67;51.33;;;;;;;;12312870;28;8853;-45
2021/01/28 17:49:27;;;;;;;;;47.33;42.00;;;;;;;;12301625;28;8860;-49
2021/01/28 17:55:30;;;;;;;;;50.33;44.33;;;;;;;;12310991;28;8845;-46
2021/01/28 18:01:31;;;;;;;;;79.00;63.00;;;;;;;;12312017;28;8926;-46
2021/01/28 18:07:32;;;;;;;;;61.00;51.33;;;;;;;;12308926;28;8846;-49
2021/01/28 18:13:34;;;;;;;;;38.33;35.33;;;;;;;;12315493;28;8842;-46
2021/01/28 18:19:36;;;;;;;;;50.33;43.67;;;;;;;;12316115;28;8854;-46
2021/01/28 18:25:38;;;;;;;;;52.67;45.00;;;;;;;;12322400;28;8834;-51
2021/01/28 18:31:39;;;;;;;;;49.33;43.00;;;;;;;;12317076;28;9603;-50
2021/01/28 18:37:41;;;;;;;;;60.67;45.00;;;;;;;;12314213;28;8850;-46
2021/01/28 18:43:43;;;;;;;;;50.67;44.33;;;;;;;;12323957;28;9599;-49
2021/01/28 18:49:44;;;;;;;;;48.67;43.67;;;;;;;;12314182;28;8846;-48
2021/01/28 18:55:45;;;;;;;;;37.00;36.00;;;;;;;;12329526;28;8940;-51
2021/01/28 19:01:47;;;;;;;;;45.00;36.67;;;;;;;;12316097;28;9484;-47
2021/01/28 19:07:49;;;;;;;;;47.33;40.33;;;;;;;;12316695;28;8876;-47
2021/01/28 19:13:51;;;;;;;;;37.33;35.33;;;;;;;;12322387;28;8952;-47
2021/01/28 19:19:52;;;;;;;;;50.33;42.33;;;;;;;;12312836;28;8862;-48
2021/01/28 19:25:53;;;;;;;;;39.00;35.33;;;;;;;;12315294;28;8860;-51
2021/01/28 19:31:56;;;;;;;;;24.00;21.67;;;;;;;;12316992;28;8879;-49
2021/01/28 19:37:58;;;;;;;;;44.33;34.00;;;;;;;;12316174;28;8834;-49
2021/01/28 19:43:59;;;;;;;;;40.67;34.00;;;;;;;;12321734;28;9684;-48
2021/01/28 19:50:01;;;;;;;;;38.00;33.67;;;;;;;;12311082;28;8948;-51
2021/01/28 19:56:03;;;;;;;;;41.00;30.33;;;;;;;;12317356;28;8854;-49
2021/01/28 20:02:05;;;;;;;;;45.33;36.33;;;;;;;;12313585;28;8842;-46
2021/01/28 20:08:08;;;;;;;;;40.67;38.67;;;;;;;;12313682;28;8827;-50
2021/01/28 20:14:09;;;;;;;;;24.00;20.00;;;;;;;;12319385;28;8820;-47
2021/01/28 20:20:13;;;;;;;;;35.33;28.67;;;;;;;;12309595;28;8930;-47
2021/01/28 20:26:15;;;;;;;;;38.67;31.67;;;;;;;;12309920;28;9613;-47
2021/01/28 20:32:16;;;;;;;;;40.67;32.67;;;;;;;;12319297;28;8836;-47
2021/01/28 20:38:18;;;;;;;;;43.00;37.00;;;;;;;;12312981;28;8850;-45
2021/01/28 20:44:19;;;;;;;;;42.33;36.67;;;;;;;;12310682;28;8834;-47
2021/01/28 20:50:21;;;;;;;;;35.33;30.67;;;;;;;;12314747;28;8838;-47
2021/01/28 20:56:24;;;;;;;;;36.33;32.67;;;;;;;;12308575;28;8856;-46
2021/01/28 21:02:29;;;;;;;;;42.67;37.00;;;;;;;;12316853;28;8844;-47
2021/01/28 21:08:33;;;;;;;;;45.00;36.00;;;;;;;;12312912;28;8866;-47
2021/01/28 21:14:34;;;;;;;;;40.67;36.67;;;;;;;;12311567;28;8839;-47
2021/01/28 21:20:35;;;;;;;;;42.00;37.00;;;;;;;;12310075;28;8842;-48
2021/01/28 21:26:37;;;;;;;;;38.33;36.67;;;;;;;;12306485;28;8890;-46
2021/01/28 21:32:38;;;;;;;;;43.67;30.67;;;;;;;;12316366;28;9705;-47
2021/01/28 21:38:41;;;;;;;;;37.00;32.33;;;;;;;;12311262;28;8853;-48
2021/01/28 21:44:43;;;;;;;;;38.33;32.67;;;;;;;;12287536;28;8864;-48
2021/01/28 21:50:52;;;;;;;;;45.00;39.33;;;;;;;;12293530;28;9610;-51
2021/01/28 21:56:54;;;;;;;;;35.67;29.33;;;;;;;;12305480;28;9012;-50
2021/01/28 22:02:55;;;;;;;;;34.00;32.67;;;;;;;;12320560;28;8856;-50
2021/01/28 22:08:57;;;;;;;;;39.67;37.00;;;;;;;;12307538;28;8941;-48
2021/01/28 22:14:58;;;;;;;;;48.67;44.33;;;;;;;;12313839;28;8888;-48
2021/01/28 22:20:59;;;;;;;;;44.67;35.67;;;;;;;;12308038;28;9290;-46
2021/01/28 22:27:01;;;;;;;;;26.33;26.00;;;;;;;;12306351;28;8848;-47
2021/01/28 22:33:04;;;;;;;;;37.33;31.00;;;;;;;;12314282;28;8992;-48
2021/01/28 22:39:06;;;;;;;;;39.33;33.00;;;;;;;;12305165;28;8875;-48
2021/01/28 22:45:10;;;;;;;;;33.33;31.33;;;;;;;;12299585;28;8940;-50
2021/01/28 22:51:12;;;;;;;;;31.00;30.00;;;;;;;;12310201;28;8849;-45
2021/01/28 22:57:13;;;;;;;;;36.00;30.00;;;;;;;;12313277;28;8868;-49
2021/01/28 23:03:19;;;;;;;;;32.33;27.33;;;;;;;;12313812;28;8875;-46
2021/01/28 23:09:21;;;;;;;;;30.33;28.33;;;;;;;;12315693;28;8854;-47
2021/01/28 23:15:26;;;;;;;;;33.33;31.00;;;;;;;;12313625;28;8841;-45
2021/01/28 23:21:28;;;;;;;;;32.33;25.00;;;;;;;;12316059;28;8848;-50
2021/01/28 23:27:30;;;;;;;;;36.00;36.00;;;;;;;;12316410;28;8914;-45
2021/01/28 23:33:32;;;;;;;;;35.33;28.00;;;;;;;;12317545;28;8841;-49
2021/01/28 23:39:33;;;;;;;;;26.33;24.67;;;;;;;;12309944;28;8879;-48
2021/01/28 23:45:35;;;;;;;;;26.33;24.33;;;;;;;;12319966;28;8984;-47
2021/01/28 23:51:38;;;;;;;;;30.67;24.33;;;;;;;;12315433;28;9673;-46
2021/01/28 23:57:39;;;;;;;;;24.67;24.00;;;;;;;;12316425;28;8837;-47
